Accueil
METAR-TAF:

METAR-TAF

Aéroports :

Île Christmas, Kiribati

Aéroport international Cassidy

latitude: 01-59N, longitude: 157-29W, altitude: 3 m

Observation

Le bulletin a été fait il y a 1 heure et 4 minutes, à 20:00 UTC
Vent 13 kt de est
Température 30°C
Humidité 70%
Pression 1010 hPa
Visibilité 10 km ou plus
Quelques nuages à une hauteur de 1900 ft
Nuages fragmentés à une hauteur de 4000 ft

METAR: PLCH 242000Z 09013KT 9999 FEW019 BKN040 30/24 Q1010

Heure: 11:04 (21:04 UTC)

Prévision

Le bulletin a été fait il y a 3 heures et 37 minutes, à 17:27 UTC
Prévision valable du 24 à 18 UTC au 25 à 18 UTC
Vent 7 kt de est/sud-est
Visibilité 10 km ou plus
Nuages épars à une hauteur de 2000 ft
Nuages fragmentés à une hauteur de 4000 ft

TAF: PLCH 241727Z 2418/2518 11007KT 9999 SCT020 BKN040

Observations et prévisions météorologiques de plus de 4000 aéroports (messages METAR et TAF).

Les stations disponibles sont représentées par des disques jaunes et rouges sur la carte.

Passer la souris dessus pour voir le nom de la station.

Cliquer dessus pour voir les observations et prévisions météorologiques.

Pour changer de carte: cliquez sur les boutons verts avec une croix noire pour zoomer, sur le bouton vert avec un tiret pour effectuer un zoom arrière, ou sur les flèches vertes pour les cartes adjacentes.


METAR-TAF: